Time;durP1;ratioP1;P1;durP2;ratioP2;P2;SDS_P1;SDS_P2;PMS_P1;PMS_P2;Temp;Humidity;BMP_temperature;BMP_pressure;BME280_temperature;BME280_humidity;BME280_pressure;Samples;Min_cycle;Max_cycle;Signal;HPM_P1;HPM_P2
2022/05/18 00:01:16;;;;;;;;;3.00;3.00;;;;;;;;4980026;28;45527;-79
2022/05/18 00:03:43;;;;;;;;;2.33;2.33;;;;;;;;4980372;28;45445;-79
2022/05/18 00:06:08;;;;;;;;;4.00;2.33;;;;;;;;4992434;28;47095;-80
2022/05/18 00:08:36;;;;;;;;;2.00;2.00;;;;;;;;4991684;28;45463;-79
2022/05/18 00:11:01;;;;;;;;;3.00;3.00;;;;;;;;4988119;28;45609;-79
2022/05/18 00:13:27;;;;;;;;;3.33;3.33;;;;;;;;4984222;28;45450;-79
2022/05/18 00:15:52;;;;;;;;;2.00;2.00;;;;;;;;4994108;28;46177;-79
2022/05/18 00:18:17;;;;;;;;;2.33;2.33;;;;;;;;4995452;28;45481;-79
2022/05/18 00:20:42;;;;;;;;;2.00;2.00;;;;;;;;4991218;28;45294;-78
2022/05/18 00:23:08;;;;;;;;;2.00;2.00;;;;;;;;4991970;28;45345;-79
2022/05/18 00:25:38;;;;;;;;;2.00;2.00;;;;;;;;4990947;28;45293;-80
2022/05/18 00:28:04;;;;;;;;;2.00;2.00;;;;;;;;4991350;28;45440;-80
2022/05/18 00:30:30;;;;;;;;;2.33;2.33;;;;;;;;4995191;28;45468;-79
2022/05/18 00:32:56;;;;;;;;;3.67;1.33;;;;;;;;4980965;28;45307;-80
2022/05/18 00:35:22;;;;;;;;;2.00;2.00;;;;;;;;4983914;28;46009;-79
2022/05/18 00:37:48;;;;;;;;;2.67;1.00;;;;;;;;4987663;28;47185;-79
2022/05/18 00:40:14;;;;;;;;;2.33;1.67;;;;;;;;4992715;28;45436;-79
2022/05/18 00:42:40;;;;;;;;;2.33;2.33;;;;;;;;4993556;28;45347;-79
2022/05/18 00:45:05;;;;;;;;;2.00;2.00;;;;;;;;4979566;28;46374;-79
2022/05/18 00:47:31;;;;;;;;;2.00;2.00;;;;;;;;4983454;28;45285;-79
2022/05/18 00:50:04;;;;;;;;;2.00;2.00;;;;;;;;4985181;28;45562;-79
2022/05/18 00:52:33;;;;;;;;;3.00;2.00;;;;;;;;4990542;28;45520;-79
2022/05/18 00:54:59;;;;;;;;;1.00;1.00;;;;;;;;4994650;28;46240;-79
2022/05/18 00:57:26;;;;;;;;;3.00;3.00;;;;;;;;4978995;28;45286;-79
2022/05/18 01:00:12;;;;;;;;;3.33;2.00;;;;;;;;4991309;28;45400;-80
2022/05/18 01:02:39;;;;;;;;;2.00;2.00;;;;;;;;4989902;28;45277;-79
2022/05/18 01:05:06;;;;;;;;;3.00;3.00;;;;;;;;4990538;28;46517;-79
2022/05/18 01:07:36;;;;;;;;;2.00;2.00;;;;;;;;4993273;28;45427;-79
2022/05/18 01:10:01;;;;;;;;;2.00;2.00;;;;;;;;4982950;28;45329;-79
2022/05/18 01:12:26;;;;;;;;;3.67;2.00;;;;;;;;4997686;28;45555;-79
2022/05/18 01:14:53;;;;;;;;;2.00;2.00;;;;;;;;4984484;28;47347;-79
2022/05/18 01:17:22;;;;;;;;;2.00;2.00;;;;;;;;4986803;28;45334;-79
2022/05/18 01:19:49;;;;;;;;;2.00;1.33;;;;;;;;4987099;28;45453;-79
2022/05/18 01:22:14;;;;;;;;;1.00;1.00;;;;;;;;4988051;28;45454;-79
2022/05/18 01:24:45;;;;;;;;;2.00;2.00;;;;;;;;4996886;28;45559;-79
2022/05/18 01:27:10;;;;;;;;;2.00;2.00;;;;;;;;4998214;28;45357;-79
2022/05/18 01:29:36;;;;;;;;;1.67;1.67;;;;;;;;4997921;28;45525;-80
2022/05/18 01:32:02;;;;;;;;;1.00;1.00;;;;;;;;4995644;28;45527;-79
2022/05/18 01:34:30;;;;;;;;;1.33;1.33;;;;;;;;4988934;28;47489;-80
2022/05/18 01:36:55;;;;;;;;;1.00;1.00;;;;;;;;4985594;28;45306;-79
2022/05/18 01:39:40;;;;;;;;;1.67;1.67;;;;;;;;4986459;28;45580;-79
2022/05/18 01:42:06;;;;;;;;;1.33;1.33;;;;;;;;4994338;28;45438;-79
2022/05/18 01:44:32;;;;;;;;;2.00;2.00;;;;;;;;4986398;28;47182;-79
2022/05/18 01:46:57;;;;;;;;;2.33;2.00;;;;;;;;4988811;28;45306;-79
2022/05/18 01:49:22;;;;;;;;;2.00;2.00;;;;;;;;4994982;28;45504;-79
2022/05/18 01:51:50;;;;;;;;;2.00;2.00;;;;;;;;4982426;28;45421;-79
2022/05/18 01:54:16;;;;;;;;;1.00;1.00;;;;;;;;4995672;28;46252;-79
2022/05/18 01:56:41;;;;;;;;;3.00;3.00;;;;;;;;4984831;28;45342;-79
2022/05/18 01:59:07;;;;;;;;;1.67;1.67;;;;;;;;4994625;28;45569;-79
2022/05/18 02:01:32;;;;;;;;;1.33;1.33;;;;;;;;4989265;28;45496;-79
2022/05/18 02:03:57;;;;;;;;;1.33;1.33;;;;;;;;4985199;28;45550;-79
2022/05/18 02:06:23;;;;;;;;;3.33;1.00;;;;;;;;4981558;28;45520;-79
2022/05/18 02:08:48;;;;;;;;;1.33;1.33;;;;;;;;4984336;28;45401;-79
2022/05/18 02:11:15;;;;;;;;;1.33;1.00;;;;;;;;4986526;28;45516;-79
2022/05/18 02:13:40;;;;;;;;;1.00;1.00;;;;;;;;4986523;28;45734;-79
2022/05/18 02:16:06;;;;;;;;;3.00;3.00;;;;;;;;4981073;28;45464;-79
2022/05/18 02:18:31;;;;;;;;;3.67;2.00;;;;;;;;4980661;28;45418;-79
2022/05/18 02:20:56;;;;;;;;;2.00;2.00;;;;;;;;4983038;28;45590;-79
2022/05/18 02:23:21;;;;;;;;;1.33;1.33;;;;;;;;4991693;28;46468;-79
2022/05/18 02:25:46;;;;;;;;;2.00;2.00;;;;;;;;4991603;28;45373;-80
2022/05/18 02:28:12;;;;;;;;;2.67;2.00;;;;;;;;4985917;28;45484;-80
2022/05/18 02:30:37;;;;;;;;;2.00;0.67;;;;;;;;4981328;28;45381;-79
2022/05/18 02:33:03;;;;;;;;;1.67;1.67;;;;;;;;4993680;28;46245;-79
2022/05/18 02:35:28;;;;;;;;;2.33;2.00;;;;;;;;4995200;28;45776;-79
2022/05/18 02:37:53;;;;;;;;;1.67;1.67;;;;;;;;4990513;28;45461;-79
2022/05/18 02:40:18;;;;;;;;;0.00;0.00;;;;;;;;4986170;28;46255;-79
2022/05/18 02:42:43;;;;;;;;;1.00;1.00;;;;;;;;4982714;28;46422;-79
2022/05/18 02:45:09;;;;;;;;;2.00;2.00;;;;;;;;4987777;28;45413;-79
2022/05/18 02:47:34;;;;;;;;;1.00;1.00;;;;;;;;4985460;28;45587;-79
2022/05/18 02:50:00;;;;;;;;;2.00;2.00;;;;;;;;4988621;28;45286;-79
2022/05/18 02:52:25;;;;;;;;;1.00;0.33;;;;;;;;4996689;28;46297;-79
2022/05/18 02:57:33;;;;;;;;;2.00;2.00;;;;;;;;4981524;28;45369;-79
2022/05/18 02:59:59;;;;;;;;;2.00;2.00;;;;;;;;4981529;28;45591;-80
2022/05/18 03:02:24;;;;;;;;;1.67;1.67;;;;;;;;4985512;28;45990;-79
2022/05/18 03:04:50;;;;;;;;;1.00;1.00;;;;;;;;4986757;28;45361;-79
2022/05/18 03:07:15;;;;;;;;;2.00;2.00;;;;;;;;4995205;28;45407;-79
2022/05/18 03:09:40;;;;;;;;;1.00;1.00;;;;;;;;4980451;28;45570;-79
2022/05/18 03:12:05;;;;;;;;;3.00;2.00;;;;;;;;4981234;28;45337;-79
2022/05/18 03:14:31;;;;;;;;;1.00;1.00;;;;;;;;4992168;28;45278;-79
2022/05/18 03:16:56;;;;;;;;;1.00;1.00;;;;;;;;4992326;28;45467;-79
2022/05/18 03:19:23;;;;;;;;;1.00;1.00;;;;;;;;4994127;28;45337;-78
2022/05/18 03:24:32;;;;;;;;;1.00;1.00;;;;;;;;4980724;28;45285;-79
2022/05/18 03:26:57;;;;;;;;;1.00;1.00;;;;;;;;4992463;28;45416;-78
2022/05/18 03:29:22;;;;;;;;;1.00;1.00;;;;;;;;4992230;28;45297;-79
2022/05/18 03:31:48;;;;;;;;;1.00;1.00;;;;;;;;4991568;28;45274;-79
2022/05/18 03:34:13;;;;;;;;;3.00;1.00;;;;;;;;4990381;28;45376;-79
2022/05/18 03:36:39;;;;;;;;;2.00;2.00;;;;;;;;4980701;28;45297;-80
2022/05/18 03:39:05;;;;;;;;;0.00;0.00;;;;;;;;4993104;28;45199;-79
2022/05/18 03:41:31;;;;;;;;;1.00;1.00;;;;;;;;4992188;28;46600;-79
2022/05/18 03:43:56;;;;;;;;;1.00;1.00;;;;;;;;4991559;28;45430;-79
2022/05/18 03:46:21;;;;;;;;;1.00;1.00;;;;;;;;4991914;28;45523;-79
2022/05/18 03:48:47;;;;;;;;;1.67;1.00;;;;;;;;4994450;28;45282;-79
2022/05/18 03:51:13;;;;;;;;;0.00;0.00;;;;;;;;4992360;28;47629;-79
2022/05/18 03:53:38;;;;;;;;;1.00;1.00;;;;;;;;4992273;28;45408;-79
2022/05/18 03:56:04;;;;;;;;;3.00;1.33;;;;;;;;4991153;28;45374;-79
2022/05/18 03:58:29;;;;;;;;;0.00;0.00;;;;;;;;4995973;28;45331;-79
2022/05/18 04:00:55;;;;;;;;;0.00;0.00;;;;;;;;4991251;28;47515;-79
2022/05/18 04:03:23;;;;;;;;;0.00;0.00;;;;;;;;4994305;28;45540;-79
2022/05/18 04:05:48;;;;;;;;;1.00;1.00;;;;;;;;4992261;28;45372;-79
2022/05/18 04:08:13;;;;;;;;;0.33;0.33;;;;;;;;4991433;28;45381;-79
2022/05/18 04:10:39;;;;;;;;;1.00;1.00;;;;;;;;4990697;28;45306;-78
2022/05/18 04:13:05;;;;;;;;;2.00;2.00;;;;;;;;4982173;28;45413;-79
2022/05/18 04:15:31;;;;;;;;;2.00;1.00;;;;;;;;4995688;28;45382;-78
2022/05/18 04:17:57;;;;;;;;;2.00;2.00;;;;;;;;4981303;28;45325;-79
2022/05/18 04:20:23;;;;;;;;;1.00;1.00;;;;;;;;4984162;28;46093;-79
2022/05/18 04:22:49;;;;;;;;;1.00;1.00;;;;;;;;4985478;28;45354;-79
2022/05/18 04:25:16;;;;;;;;;3.00;1.00;;;;;;;;4994031;28;45481;-79
2022/05/18 04:27:42;;;;;;;;;0.67;0.67;;;;;;;;4980192;28;45455;-79
2022/05/18 04:30:07;;;;;;;;;1.67;1.00;;;;;;;;4992083;28;47219;-79
2022/05/18 04:32:33;;;;;;;;;0.33;0.33;;;;;;;;4983926;28;45357;-79
2022/05/18 04:34:58;;;;;;;;;0.00;0.00;;;;;;;;4984141;28;45499;-79
2022/05/18 04:37:23;;;;;;;;;1.00;1.00;;;;;;;;4980799;28;45553;-79
2022/05/18 04:39:48;;;;;;;;;3.00;0.33;;;;;;;;4995112;28;46387;-79
2022/05/18 04:42:14;;;;;;;;;1.00;1.00;;;;;;;;4981414;28;45713;-79
2022/05/18 04:44:39;;;;;;;;;1.00;0.67;;;;;;;;4986662;28;45274;-79
2022/05/18 04:47:04;;;;;;;;;1.00;1.00;;;;;;;;4991520;28;45456;-79
2022/05/18 04:49:30;;;;;;;;;0.33;0.33;;;;;;;;4995504;28;45254;-79
2022/05/18 04:51:55;;;;;;;;;0.00;0.00;;;;;;;;4986326;28;45578;-80
2022/05/18 04:54:20;;;;;;;;;0.33;0.33;;;;;;;;4982649;28;45448;-79
2022/05/18 04:56:46;;;;;;;;;1.33;1.00;;;;;;;;4995260;28;45514;-79
2022/05/18 04:59:12;;;;;;;;;1.00;1.00;;;;;;;;4992772;28;47143;-79
2022/05/18 05:01:38;;;;;;;;;1.00;1.00;;;;;;;;4993708;28;45271;-79
2022/05/18 05:04:09;;;;;;;;;0.33;0.33;;;;;;;;4998466;28;45260;-79
2022/05/18 05:06:34;;;;;;;;;0.00;0.00;;;;;;;;4983169;28;45298;-79
2022/05/18 05:08:59;;;;;;;;;1.00;1.00;;;;;;;;4994995;28;45276;-79
2022/05/18 05:11:24;;;;;;;;;1.00;1.00;;;;;;;;4993993;28;45456;-79
2022/05/18 05:13:50;;;;;;;;;0.00;0.00;;;;;;;;4992455;28;45358;-78
2022/05/18 05:16:15;;;;;;;;;0.00;0.00;;;;;;;;4987240;28;45523;-79
2022/05/18 05:18:40;;;;;;;;;1.00;1.00;;;;;;;;4983529;28;45511;-79
2022/05/18 05:21:06;;;;;;;;;2.00;0.00;;;;;;;;4982247;28;45469;-79
2022/05/18 05:23:32;;;;;;;;;0.00;0.00;;;;;;;;4988759;28;45483;-79
2022/05/18 05:25:58;;;;;;;;;0.00;0.00;;;;;;;;4993662;28;45568;-78
2022/05/18 05:28:23;;;;;;;;;0.33;0.33;;;;;;;;4995013;28;45609;-79
2022/05/18 05:30:48;;;;;;;;;0.00;0.00;;;;;;;;4982380;28;45373;-79
2022/05/18 05:33:14;;;;;;;;;1.00;1.00;;;;;;;;4997529;28;45424;-79
2022/05/18 05:35:41;;;;;;;;;0.00;0.00;;;;;;;;4997326;28;45392;-79
2022/05/18 05:38:06;;;;;;;;;0.00;0.00;;;;;;;;4988912;28;47018;-79
2022/05/18 05:40:31;;;;;;;;;1.00;1.00;;;;;;;;4986485;28;45329;-79
2022/05/18 05:42:56;;;;;;;;;1.00;1.00;;;;;;;;4985581;28;45433;-78
2022/05/18 05:45:21;;;;;;;;;1.00;1.00;;;;;;;;4981806;28;45404;-78
2022/05/18 05:47:47;;;;;;;;;1.33;1.33;;;;;;;;4994021;28;46119;-78
2022/05/18 05:50:12;;;;;;;;;0.00;0.00;;;;;;;;4995796;28;45520;-78
2022/05/18 05:52:37;;;;;;;;;0.00;0.00;;;;;;;;4992951;28;45440;-79
2022/05/18 05:55:03;;;;;;;;;1.00;1.00;;;;;;;;4986234;28;45420;-79
2022/05/18 05:57:28;;;;;;;;;2.33;1.00;;;;;;;;4981564;28;47186;-78
2022/05/18 05:59:53;;;;;;;;;1.00;1.00;;;;;;;;4983442;28;45597;-79
2022/05/18 06:02:19;;;;;;;;;0.00;0.00;;;;;;;;4986715;28;45508;-79
2022/05/18 06:04:44;;;;;;;;;0.33;0.33;;;;;;;;4986702;28;45437;-79
2022/05/18 06:07:09;;;;;;;;;0.00;0.00;;;;;;;;4992844;28;45339;-79
2022/05/18 06:09:35;;;;;;;;;0.00;0.00;;;;;;;;4997543;28;45559;-79
2022/05/18 06:12:01;;;;;;;;;0.00;0.00;;;;;;;;4994042;28;45247;-79
2022/05/18 06:14:26;;;;;;;;;0.67;0.67;;;;;;;;4993158;28;45686;-79
2022/05/18 06:16:51;;;;;;;;;0.00;0.00;;;;;;;;4985589;28;45503;-83
2022/05/18 06:19:17;;;;;;;;;1.00;0.67;;;;;;;;4985969;28;48502;-79
2022/05/18 06:21:42;;;;;;;;;0.00;0.00;;;;;;;;4982840;28;45525;-80
2022/05/18 06:24:08;;;;;;;;;0.00;0.00;;;;;;;;4981900;28;45355;-76
2022/05/18 06:26:34;;;;;;;;;1.00;1.00;;;;;;;;4991543;28;46029;-75
2022/05/18 06:28:59;;;;;;;;;0.00;0.00;;;;;;;;4994305;28;45594;-75
2022/05/18 06:31:24;;;;;;;;;0.00;0.00;;;;;;;;4989782;28;45641;-75
2022/05/18 06:33:49;;;;;;;;;0.00;0.00;;;;;;;;4994119;28;45448;-74
2022/05/18 06:36:15;;;;;;;;;0.00;0.00;;;;;;;;4995691;28;47172;-78
2022/05/18 06:38:40;;;;;;;;;1.00;1.00;;;;;;;;4992438;28;45505;-75
2022/05/18 06:41:24;;;;;;;;;0.00;0.00;;;;;;;;4996170;28;45408;-75
2022/05/18 06:43:54;;;;;;;;;0.00;0.00;;;;;;;;4995515;28;45375;-76
2022/05/18 06:46:20;;;;;;;;;1.00;1.00;;;;;;;;4993860;28;47092;-75
2022/05/18 06:48:45;;;;;;;;;0.00;0.00;;;;;;;;4996126;28;45407;-76
2022/05/18 06:51:10;;;;;;;;;0.00;0.00;;;;;;;;4995993;28;45365;-75
2022/05/18 06:53:36;;;;;;;;;0.00;0.00;;;;;;;;4992888;28;45507;-76
2022/05/18 06:56:01;;;;;;;;;0.00;0.00;;;;;;;;4991704;28;45543;-74
2022/05/18 06:58:26;;;;;;;;;1.00;0.00;;;;;;;;4993108;28;45404;-75
2022/05/18 07:00:51;;;;;;;;;0.33;0.33;;;;;;;;4982494;28;45416;-74
2022/05/18 07:03:17;;;;;;;;;0.00;0.00;;;;;;;;4994563;28;45394;-74
2022/05/18 07:05:43;;;;;;;;;0.00;0.00;;;;;;;;4982825;28;47031;-75
2022/05/18 07:08:09;;;;;;;;;0.67;0.67;;;;;;;;4984766;28;45409;-75
2022/05/18 07:10:34;;;;;;;;;0.00;0.00;;;;;;;;4984554;28;48874;-75
2022/05/18 07:12:59;;;;;;;;;0.00;0.00;;;;;;;;4996034;28;45468;-75
2022/05/18 07:15:24;;;;;;;;;0.00;0.00;;;;;;;;4980193;28;46870;-75
2022/05/18 07:17:49;;;;;;;;;2.00;0.00;;;;;;;;4983048;28;45515;-74
2022/05/18 07:20:15;;;;;;;;;0.00;0.00;;;;;;;;4984574;28;45359;-75
2022/05/18 07:22:40;;;;;;;;;0.00;0.00;;;;;;;;4984729;28;45419;-75
2022/05/18 07:25:06;;;;;;;;;0.00;0.00;;;;;;;;4980120;28;47320;-75
2022/05/18 07:27:31;;;;;;;;;0.00;0.00;;;;;;;;4980251;28;45635;-74
2022/05/18 07:29:56;;;;;;;;;0.00;0.00;;;;;;;;4992402;28;45463;-74
2022/05/18 07:32:21;;;;;;;;;0.00;0.00;;;;;;;;4991449;28;45343;-75
2022/05/18 07:34:47;;;;;;;;;0.33;0.00;;;;;;;;4989714;28;46105;-75
2022/05/18 07:37:14;;;;;;;;;0.00;0.00;;;;;;;;4981116;28;45428;-75
2022/05/18 07:39:39;;;;;;;;;0.67;0.67;;;;;;;;4995906;28;45393;-75
2022/05/18 07:42:05;;;;;;;;;0.00;0.00;;;;;;;;4991665;28;45563;-75
2022/05/18 07:44:31;;;;;;;;;0.00;0.00;;;;;;;;4984508;28;46413;-75
2022/05/18 07:46:57;;;;;;;;;2.00;0.00;;;;;;;;4984286;28;45227;-74
2022/05/18 07:49:22;;;;;;;;;0.00;0.00;;;;;;;;4984241;28;45622;-74
2022/05/18 07:51:47;;;;;;;;;0.00;0.00;;;;;;;;4980637;28;47863;-75
2022/05/18 07:54:13;;;;;;;;;1.00;0.00;;;;;;;;4992931;28;46149;-75
2022/05/18 07:56:39;;;;;;;;;0.00;0.00;;;;;;;;4991691;28;45612;-75
2022/05/18 07:59:05;;;;;;;;;0.33;0.33;;;;;;;;4988023;28;45655;-75
2022/05/18 08:01:30;;;;;;;;;0.33;0.33;;;;;;;;4983032;28;45388;-74
2022/05/18 08:03:55;;;;;;;;;0.00;0.00;;;;;;;;4994612;28;47311;-74
2022/05/18 08:06:21;;;;;;;;;0.00;0.00;;;;;;;;4979630;28;45520;-75
2022/05/18 08:08:46;;;;;;;;;0.00;0.00;;;;;;;;4982887;28;45404;-72
2022/05/18 08:16:40;;;;;;;;;2.00;0.67;;;;;;;;4984895;28;45416;-75
2022/05/18 08:19:10;;;;;;;;;0.00;0.00;;;;;;;;4990852;28;45336;-75
2022/05/18 08:21:35;;;;;;;;;0.00;0.00;;;;;;;;4979863;28;45487;-74
2022/05/18 08:24:00;;;;;;;;;0.00;0.00;;;;;;;;4991565;28;45454;-74
2022/05/18 08:26:25;;;;;;;;;0.00;0.00;;;;;;;;4984468;28;45484;-75
2022/05/18 08:28:52;;;;;;;;;0.00;0.00;;;;;;;;4985626;28;45377;-75
2022/05/18 08:31:17;;;;;;;;;0.00;0.00;;;;;;;;4993929;28;45587;-75
2022/05/18 08:33:43;;;;;;;;;0.00;0.00;;;;;;;;4980243;28;45424;-74
2022/05/18 08:36:08;;;;;;;;;1.67;1.00;;;;;;;;4979680;28;45357;-75
2022/05/18 08:38:34;;;;;;;;;0.33;0.33;;;;;;;;4983935;28;45441;-75
2022/05/18 08:41:10;;;;;;;;;0.67;0.67;;;;;;;;4983822;28;45704;-74
2022/05/18 08:43:37;;;;;;;;;0.00;0.00;;;;;;;;4983667;28;46189;-74
2022/05/18 08:46:02;;;;;;;;;0.00;0.00;;;;;;;;4982753;28;45573;-73
2022/05/18 08:48:36;;;;;;;;;0.00;0.00;;;;;;;;4979063;28;45526;-73
2022/05/18 08:51:03;;;;;;;;;0.00;0.00;;;;;;;;4980271;28;45349;-74
2022/05/18 08:53:40;;;;;;;;;0.00;0.00;;;;;;;;4983545;28;46072;-73
2022/05/18 08:56:14;;;;;;;;;0.00;0.00;;;;;;;;4986646;28;45648;-74
2022/05/18 08:58:41;;;;;;;;;0.67;0.67;;;;;;;;4990437;28;45243;-76
2022/05/18 09:01:18;;;;;;;;;0.00;0.00;;;;;;;;4979324;28;45568;-74
2022/05/18 09:03:44;;;;;;;;;2.00;0.67;;;;;;;;4979381;28;47510;-74
2022/05/18 09:06:20;;;;;;;;;0.00;0.00;;;;;;;;4991727;28;45411;-74
2022/05/18 09:10:12;;;;;;;;;0.00;0.00;;;;;;;;4980081;28;45432;-74
2022/05/18 09:11:37;;;;;;;;;0.00;0.00;;;;;;;;4982974;28;45429;-74
2022/05/18 09:14:02;;;;;;;;;0.33;0.33;;;;;;;;4983099;28;47126;-74
2022/05/18 09:16:33;;;;;;;;;0.00;0.00;;;;;;;;4983035;28;45357;-74
2022/05/18 09:18:58;;;;;;;;;0.00;0.00;;;;;;;;4993070;28;45428;-74
2022/05/18 09:21:35;;;;;;;;;0.00;0.00;;;;;;;;4978533;28;45288;-73
2022/05/18 09:24:18;;;;;;;;;0.00;0.00;;;;;;;;4990836;28;47191;-74
2022/05/18 09:26:51;;;;;;;;;0.00;0.00;;;;;;;;4990445;28;45349;-73
2022/05/18 09:29:16;;;;;;;;;0.00;0.00;;;;;;;;4988353;28;45451;-74
2022/05/18 09:32:10;;;;;;;;;0.00;0.00;;;;;;;;4986361;28;45335;-74
2022/05/18 09:34:54;;;;;;;;;0.00;0.00;;;;;;;;5003793;28;46170;-74
2022/05/18 09:37:28;;;;;;;;;0.00;0.00;;;;;;;;5006122;28;45629;-74
2022/05/18 09:40:11;;;;;;;;;0.00;0.00;;;;;;;;4980036;28;45475;-74
2022/05/18 09:42:38;;;;;;;;;0.00;0.00;;;;;;;;4994545;28;45495;-73
2022/05/18 09:45:06;;;;;;;;;0.67;0.67;;;;;;;;4991593;28;47051;-74
2022/05/18 09:47:35;;;;;;;;;0.00;0.00;;;;;;;;4990913;28;45400;-73
2022/05/18 09:50:06;;;;;;;;;0.00;0.00;;;;;;;;4988161;28;45377;-73
2022/05/18 09:52:32;;;;;;;;;0.00;0.00;;;;;;;;4982373;28;45437;-74
2022/05/18 09:55:00;;;;;;;;;0.00;0.00;;;;;;;;4994181;28;46223;-74
2022/05/18 09:57:31;;;;;;;;;2.33;0.00;;;;;;;;4979033;28;45442;-74
2022/05/18 09:59:59;;;;;;;;;0.00;0.00;;;;;;;;4991332;28;45787;-74
2022/05/18 10:07:58;;;;;;;;;0.00;0.00;;;;;;;;4990636;28;45310;-74
2022/05/18 10:10:27;;;;;;;;;0.33;0.33;;;;;;;;4992028;28;45504;-74
2022/05/18 10:12:56;;;;;;;;;0.00;0.00;;;;;;;;4994637;28;45439;-74
2022/05/18 10:15:24;;;;;;;;;0.00;0.00;;;;;;;;4995120;28;47093;-74
2022/05/18 10:17:51;;;;;;;;;0.00;0.00;;;;;;;;4988353;28;45396;-75
2022/05/18 10:20:43;;;;;;;;;0.00;0.00;;;;;;;;4992645;28;45497;-74
2022/05/18 10:23:26;;;;;;;;;0.67;0.67;;;;;;;;4988250;28;48481;-74
2022/05/18 10:25:52;;;;;;;;;1.00;0.00;;;;;;;;4991576;28;46016;-74
2022/05/18 10:28:21;;;;;;;;;0.33;0.00;;;;;;;;4985509;28;45594;-74
2022/05/18 10:30:58;;;;;;;;;1.33;0.00;;;;;;;;4983028;28;45359;-74
2022/05/18 10:33:31;;;;;;;;;0.00;0.00;;;;;;;;4979681;28;45488;-74
2022/05/18 10:35:57;;;;;;;;;0.00;0.00;;;;;;;;4982533;28;46606;-74
2022/05/18 10:38:26;;;;;;;;;0.00;0.00;;;;;;;;4991156;28;45374;-75
2022/05/18 10:41:04;;;;;;;;;1.67;0.00;;;;;;;;4991128;28;45370;-73
2022/05/18 10:43:31;;;;;;;;;0.00;0.00;;;;;;;;4993518;28;45297;-74
2022/05/18 10:46:00;;;;;;;;;0.00;0.00;;;;;;;;4983493;28;46119;-74
2022/05/18 10:48:27;;;;;;;;;0.00;0.00;;;;;;;;4980540;28;45449;-74
2022/05/18 10:51:12;;;;;;;;;0.00;0.00;;;;;;;;4983019;28;45598;-74
2022/05/18 10:53:42;;;;;;;;;1.00;0.00;;;;;;;;4991822;28;45475;-74
2022/05/18 10:56:09;;;;;;;;;0.00;0.00;;;;;;;;4991323;28;47181;-74
2022/05/18 10:58:37;;;;;;;;;0.00;0.00;;;;;;;;4991212;28;45475;-74
2022/05/18 11:01:08;;;;;;;;;0.00;0.00;;;;;;;;4996061;28;45306;-74
2022/05/18 11:03:52;;;;;;;;;0.00;0.00;;;;;;;;4995698;28;45369;-74
2022/05/18 11:06:23;;;;;;;;;0.00;0.00;;;;;;;;4994095;28;45507;-74
2022/05/18 11:08:49;;;;;;;;;0.00;0.00;;;;;;;;4981512;28;45501;-74
2022/05/18 11:11:17;;;;;;;;;0.00;0.00;;;;;;;;4988916;28;45361;-75
2022/05/18 11:13:46;;;;;;;;;0.00;0.00;;;;;;;;4991701;28;45354;-74
2022/05/18 11:16:17;;;;;;;;;1.33;0.00;;;;;;;;4984156;28;46936;-74
2022/05/18 11:19:00;;;;;;;;;0.00;0.00;;;;;;;;4981241;28;45497;-74
2022/05/18 11:21:33;;;;;;;;;0.00;0.00;;;;;;;;4986773;28;45321;-74
2022/05/18 11:24:21;;;;;;;;;0.00;0.00;;;;;;;;4992327;28;45338;-74
2022/05/18 11:26:55;;;;;;;;;0.00;0.00;;;;;;;;4980621;28;46125;-74
2022/05/18 11:29:21;;;;;;;;;0.00;0.00;;;;;;;;4984610;28;45468;-73
2022/05/18 11:31:46;;;;;;;;;0.00;0.00;;;;;;;;4984348;28;45406;-75
2022/05/18 11:34:36;;;;;;;;;0.00;0.00;;;;;;;;4980861;28;45495;-74
2022/05/18 11:37:10;;;;;;;;;0.00;0.00;;;;;;;;4991900;28;46114;-74
2022/05/18 11:39:38;;;;;;;;;0.00;0.00;;;;;;;;4978609;28;45349;-74
2022/05/18 11:42:13;;;;;;;;;0.00;0.00;;;;;;;;4992010;28;45500;-73
2022/05/18 11:44:43;;;;;;;;;0.00;0.00;;;;;;;;4990918;28;45416;-74
2022/05/18 11:47:16;;;;;;;;;0.00;0.00;;;;;;;;4987310;28;45336;-74
2022/05/18 11:50:02;;;;;;;;;0.67;0.67;;;;;;;;4984183;28;45524;-75
2022/05/18 11:52:59;;;;;;;;;0.33;0.00;;;;;;;;4984319;28;45848;-74
2022/05/18 11:55:33;;;;;;;;;0.00;0.00;;;;;;;;4972394;28;45370;-72
2022/05/18 11:58:04;;;;;;;;;0.00;0.00;;;;;;;;4973129;28;47348;-75
2022/05/18 12:03:10;;;;;;;;;0.00;0.00;;;;;;;;4970812;28;45394;-75
2022/05/18 12:05:51;;;;;;;;;0.00;0.00;;;;;;;;4973583;28;45464;-75
2022/05/18 12:08:27;;;;;;;;;1.00;0.00;;;;;;;;4972447;28;46050;-75
2022/05/18 12:11:15;;;;;;;;;0.00;0.00;;;;;;;;4972217;28;45526;-78
2022/05/18 12:14:03;;;;;;;;;0.00;0.00;;;;;;;;4972943;28;45342;-74
2022/05/18 12:16:39;;;;;;;;;0.00;0.00;;;;;;;;4970410;28;45619;-73
2022/05/18 12:19:21;;;;;;;;;0.00;0.00;;;;;;;;4972503;28;47012;-74
2022/05/18 12:21:52;;;;;;;;;0.00;0.00;;;;;;;;4972891;28;45356;-74
2022/05/18 12:24:17;;;;;;;;;0.00;0.00;;;;;;;;4972971;28;45528;-75
2022/05/18 12:26:44;;;;;;;;;0.00;0.00;;;;;;;;4973713;28;45531;-75
2022/05/18 12:29:10;;;;;;;;;1.00;0.00;;;;;;;;4972825;28;46151;-74
2022/05/18 12:31:36;;;;;;;;;0.00;0.00;;;;;;;;4983428;28;45401;-74
2022/05/18 12:34:06;;;;;;;;;2.00;0.67;;;;;;;;4979596;28;45638;-74
2022/05/18 12:36:43;;;;;;;;;0.00;0.00;;;;;;;;4994965;28;45472;-74
2022/05/18 12:39:19;;;;;;;;;0.00;0.00;;;;;;;;4991669;28;47213;-74
2022/05/18 12:41:46;;;;;;;;;1.00;0.33;;;;;;;;4982119;28;45366;-74
2022/05/18 12:44:13;;;;;;;;;0.00;0.00;;;;;;;;4983909;28;45303;-74
2022/05/18 12:46:43;;;;;;;;;2.00;0.00;;;;;;;;4983541;28;45422;-76
2022/05/18 12:49:11;;;;;;;;;1.67;0.00;;;;;;;;4979620;28;46082;-76
2022/05/18 12:51:39;;;;;;;;;0.00;0.00;;;;;;;;4979427;28;45538;-76
2022/05/18 12:54:10;;;;;;;;;1.00;0.00;;;;;;;;4991123;28;45361;-76
2022/05/18 12:56:35;;;;;;;;;0.00;0.00;;;;;;;;4989942;28;45298;-77
2022/05/18 12:59:01;;;;;;;;;0.67;0.67;;;;;;;;4987479;28;47162;-76
2022/05/18 13:01:31;;;;;;;;;0.00;0.00;;;;;;;;4983486;28;45334;-76
2022/05/18 13:04:01;;;;;;;;;0.00;0.00;;;;;;;;4984995;28;45393;-77
2022/05/18 13:06:35;;;;;;;;;1.00;1.00;;;;;;;;4980924;28;45384;-77
2022/05/18 13:09:23;;;;;;;;;0.00;0.00;;;;;;;;4994176;28;45405;-76
2022/05/18 13:12:07;;;;;;;;;2.00;1.00;;;;;;;;4994460;28;45394;-78
2022/05/18 13:14:37;;;;;;;;;0.00;0.00;;;;;;;;4993912;28;45376;-76
2022/05/18 13:17:05;;;;;;;;;1.00;0.00;;;;;;;;4990594;28;45553;-76
2022/05/18 13:19:31;;;;;;;;;0.00;0.00;;;;;;;;4989062;28;47281;-76
2022/05/18 13:21:56;;;;;;;;;1.00;1.00;;;;;;;;4994874;28;45242;-76
2022/05/18 13:24:35;;;;;;;;;2.00;0.25;;;;;;;;4996507;28;45307;-75
2022/05/18 13:27:09;;;;;;;;;2.00;0.00;;;;;;;;4983479;28;45325;-76
2022/05/18 13:29:35;;;;;;;;;0.67;0.67;;;;;;;;4997124;28;46312;-77
2022/05/18 13:32:02;;;;;;;;;0.33;0.33;;;;;;;;4990368;28;45388;-76
2022/05/18 13:34:36;;;;;;;;;2.00;1.00;;;;;;;;4990727;28;45306;-77
2022/05/18 13:37:03;;;;;;;;;0.00;0.00;;;;;;;;4997318;28;45408;-75
2022/05/18 13:39:28;;;;;;;;;0.00;0.00;;;;;;;;4980675;28;46136;-76
2022/05/18 13:41:54;;;;;;;;;1.00;1.00;;;;;;;;4984273;28;45323;-77
2022/05/18 13:44:24;;;;;;;;;0.00;0.00;;;;;;;;4986534;28;45360;-76
2022/05/18 13:46:49;;;;;;;;;0.00;0.00;;;;;;;;4986660;28;48463;-76
2022/05/18 13:49:17;;;;;;;;;0.00;0.00;;;;;;;;4993126;28;45508;-76
2022/05/18 13:51:48;;;;;;;;;2.00;0.67;;;;;;;;4996379;28;45496;-76
2022/05/18 13:54:16;;;;;;;;;0.67;0.67;;;;;;;;4994722;28;45544;-77
2022/05/18 13:56:47;;;;;;;;;0.00;0.00;;;;;;;;4984142;28;45845;-77
2022/05/18 13:59:19;;;;;;;;;0.00;0.00;;;;;;;;4990071;28;47144;-77
2022/05/18 14:01:47;;;;;;;;;1.67;1.00;;;;;;;;4992093;28;45419;-76
2022/05/18 14:04:14;;;;;;;;;1.67;0.00;;;;;;;;4986155;28;45769;-76
2022/05/18 14:06:39;;;;;;;;;0.00;0.00;;;;;;;;4981906;28;45430;-76
2022/05/18 14:09:06;;;;;;;;;0.00;0.00;;;;;;;;4998163;28;46070;-76
2022/05/18 14:11:31;;;;;;;;;0.00;0.00;;;;;;;;4992768;28;45436;-75
2022/05/18 14:13:57;;;;;;;;;1.00;1.00;;;;;;;;4992554;28;45792;-77
2022/05/18 14:16:28;;;;;;;;;0.00;0.00;;;;;;;;4995437;28;45508;-77
2022/05/18 14:18:55;;;;;;;;;0.00;0.00;;;;;;;;4983195;28;46909;-76
2022/05/18 14:21:21;;;;;;;;;0.67;0.67;;;;;;;;4979886;28;45640;-77
2022/05/18 14:23:49;;;;;;;;;0.67;0.67;;;;;;;;4984633;28;45389;-79
2022/05/18 14:26:17;;;;;;;;;1.00;0.00;;;;;;;;4985987;28;45311;-75
2022/05/18 14:28:44;;;;;;;;;0.00;0.00;;;;;;;;4985584;28;46034;-73
2022/05/18 14:31:11;;;;;;;;;0.00;0.00;;;;;;;;4985768;28;45420;-73
2022/05/18 14:33:42;;;;;;;;;0.00;0.00;;;;;;;;4981607;28;45380;-73
2022/05/18 14:36:13;;;;;;;;;0.00;0.00;;;;;;;;4993556;28;45501;-73
2022/05/18 14:38:44;;;;;;;;;0.00;0.00;;;;;;;;4991986;28;46175;-73
2022/05/18 14:41:11;;;;;;;;;1.00;1.00;;;;;;;;4988348;28;45782;-73
2022/05/18 14:43:36;;;;;;;;;0.00;0.00;;;;;;;;4985324;28;45292;-73
2022/05/18 14:46:20;;;;;;;;;0.33;0.33;;;;;;;;4984783;28;45329;-73
2022/05/18 14:48:49;;;;;;;;;3.00;1.00;;;;;;;;4987148;28;45532;-73
2022/05/18 14:51:28;;;;;;;;;1.00;1.00;;;;;;;;4996508;28;45390;-73
2022/05/18 14:53:55;;;;;;;;;2.67;1.00;;;;;;;;4981747;28;45487;-73
2022/05/18 14:56:20;;;;;;;;;2.00;0.67;;;;;;;;4985637;28;45324;-73
2022/05/18 14:58:50;;;;;;;;;0.67;0.00;;;;;;;;4985034;28;46013;-73
2022/05/18 15:01:21;;;;;;;;;0.67;0.67;;;;;;;;4985115;28;45244;-76
2022/05/18 15:03:46;;;;;;;;;0.00;0.00;;;;;;;;4982152;28;45404;-78
2022/05/18 15:06:14;;;;;;;;;2.33;1.00;;;;;;;;4996765;28;45490;-74
2022/05/18 15:08:50;;;;;;;;;1.00;1.00;;;;;;;;4991671;28;47225;-73